sensor_id;sensor_type;location;lat;lon;timestamp;P1;durP1;ratioP1;P2;durP2;ratioP2
27792;SDS011;15174;48.190;11.462;2024-03-08T00:01:15;22.35;;;12.23;;
27792;SDS011;15174;48.190;11.462;2024-03-08T00:03:45;24.88;;;11.60;;
27792;SDS011;15174;48.190;11.462;2024-03-08T00:06:11;26.70;;;11.63;;
27792;SDS011;15174;48.190;11.462;2024-03-08T00:08:38;30.83;;;13.07;;
27792;SDS011;15174;48.190;11.462;2024-03-08T00:11:05;25.73;;;12.77;;
27792;SDS011;15174;48.190;11.462;2024-03-08T00:13:34;28.73;;;12.98;;
27792;SDS011;15174;48.190;11.462;2024-03-08T00:16:00;28.88;;;13.38;;
27792;SDS011;15174;48.190;11.462;2024-03-08T00:18:28;31.63;;;13.07;;
27792;SDS011;15174;48.190;11.462;2024-03-08T00:20:55;31.83;;;12.80;;
27792;SDS011;15174;48.190;11.462;2024-03-08T00:23:22;29.27;;;12.52;;
27792;SDS011;15174;48.190;11.462;2024-03-08T00:25:52;35.22;;;13.63;;
27792;SDS011;15174;48.190;11.462;2024-03-08T00:28:19;28.50;;;13.20;;
27792;SDS011;15174;48.190;11.462;2024-03-08T00:30:46;27.33;;;13.13;;
27792;SDS011;15174;48.190;11.462;2024-03-08T00:33:12;30.48;;;13.75;;
27792;SDS011;15174;48.190;11.462;2024-03-08T00:35:38;26.98;;;13.13;;
27792;SDS011;15174;48.190;11.462;2024-03-08T00:38:04;23.65;;;12.88;;
27792;SDS011;15174;48.190;11.462;2024-03-08T00:40:30;30.60;;;13.68;;
27792;SDS011;15174;48.190;11.462;2024-03-08T00:42:56;25.05;;;12.90;;
27792;SDS011;15174;48.190;11.462;2024-03-08T00:45:22;32.85;;;13.68;;
27792;SDS011;15174;48.190;11.462;2024-03-08T00:47:48;30.48;;;13.57;;
27792;SDS011;15174;48.190;11.462;2024-03-08T00:50:14;28.30;;;13.98;;
27792;SDS011;15174;48.190;11.462;2024-03-08T00:52:41;30.63;;;13.88;;
27792;SDS011;15174;48.190;11.462;2024-03-08T00:55:07;26.13;;;11.82;;
27792;SDS011;15174;48.190;11.462;2024-03-08T00:57:35;27.05;;;12.93;;
27792;SDS011;15174;48.190;11.462;2024-03-08T01:00:02;30.80;;;13.80;;
27792;SDS011;15174;48.190;11.462;2024-03-08T01:04:55;21.00;;;11.85;;
27792;SDS011;15174;48.190;11.462;2024-03-08T01:07:22;29.50;;;14.60;;
27792;SDS011;15174;48.190;11.462;2024-03-08T01:09:48;31.67;;;13.52;;
27792;SDS011;15174;48.190;11.462;2024-03-08T01:12:14;28.08;;;13.88;;
27792;SDS011;15174;48.190;11.462;2024-03-08T01:14:40;27.50;;;12.80;;
27792;SDS011;15174;48.190;11.462;2024-03-08T01:17:06;30.10;;;13.23;;
27792;SDS011;15174;48.190;11.462;2024-03-08T01:19:34;30.48;;;13.73;;
27792;SDS011;15174;48.190;11.462;2024-03-08T01:22:00;27.23;;;12.73;;
27792;SDS011;15174;48.190;11.462;2024-03-08T01:24:26;27.70;;;13.05;;
27792;SDS011;15174;48.190;11.462;2024-03-08T01:26:52;31.13;;;13.15;;
27792;SDS011;15174;48.190;11.462;2024-03-08T01:29:18;25.95;;;13.15;;
27792;SDS011;15174;48.190;11.462;2024-03-08T01:31:44;32.42;;;14.02;;
27792;SDS011;15174;48.190;11.462;2024-03-08T01:34:10;37.95;;;14.20;;
27792;SDS011;15174;48.190;11.462;2024-03-08T01:36:36;26.33;;;14.05;;
27792;SDS011;15174;48.190;11.462;2024-03-08T01:39:02;26.70;;;12.75;;
27792;SDS011;15174;48.190;11.462;2024-03-08T01:41:33;28.13;;;13.70;;
27792;SDS011;15174;48.190;11.462;2024-03-08T01:44:00;28.80;;;13.50;;
27792;SDS011;15174;48.190;11.462;2024-03-08T01:46:26;34.17;;;13.43;;
27792;SDS011;15174;48.190;11.462;2024-03-08T01:48:53;31.27;;;14.77;;
27792;SDS011;15174;48.190;11.462;2024-03-08T01:51:20;37.90;;;15.30;;
27792;SDS011;15174;48.190;11.462;2024-03-08T01:53:46;36.40;;;13.07;;
27792;SDS011;15174;48.190;11.462;2024-03-08T01:56:12;36.55;;;14.85;;
27792;SDS011;15174;48.190;11.462;2024-03-08T01:58:40;29.90;;;13.68;;
27792;SDS011;15174;48.190;11.462;2024-03-08T02:01:08;32.97;;;13.07;;
27792;SDS011;15174;48.190;11.462;2024-03-08T02:03:35;30.05;;;13.10;;
27792;SDS011;15174;48.190;11.462;2024-03-08T02:06:01;31.35;;;14.38;;
27792;SDS011;15174;48.190;11.462;2024-03-08T02:08:27;29.60;;;14.50;;
27792;SDS011;15174;48.190;11.462;2024-03-08T02:10:54;30.02;;;13.93;;
27792;SDS011;15174;48.190;11.462;2024-03-08T02:13:20;33.17;;;14.98;;
27792;SDS011;15174;48.190;11.462;2024-03-08T02:15:53;25.00;;;12.85;;
27792;SDS011;15174;48.190;11.462;2024-03-08T02:18:19;34.67;;;15.57;;
27792;SDS011;15174;48.190;11.462;2024-03-08T02:20:55;36.67;;;15.30;;
27792;SDS011;15174;48.190;11.462;2024-03-08T02:23:22;32.47;;;14.85;;
27792;SDS011;15174;48.190;11.462;2024-03-08T02:25:50;36.42;;;16.63;;
27792;SDS011;15174;48.190;11.462;2024-03-08T02:28:16;32.80;;;15.32;;
27792;SDS011;15174;48.190;11.462;2024-03-08T02:30:45;33.40;;;14.52;;
27792;SDS011;15174;48.190;11.462;2024-03-08T02:33:16;34.88;;;14.57;;
27792;SDS011;15174;48.190;11.462;2024-03-08T02:35:42;42.15;;;14.93;;
27792;SDS011;15174;48.190;11.462;2024-03-08T02:38:13;35.13;;;15.90;;
27792;SDS011;15174;48.190;11.462;2024-03-08T02:40:51;31.92;;;14.95;;
27792;SDS011;15174;48.190;11.462;2024-03-08T02:43:18;30.85;;;14.88;;
27792;SDS011;15174;48.190;11.462;2024-03-08T02:45:44;28.08;;;13.98;;
27792;SDS011;15174;48.190;11.462;2024-03-08T02:48:11;32.72;;;14.98;;
27792;SDS011;15174;48.190;11.462;2024-03-08T02:50:37;37.72;;;15.57;;
27792;SDS011;15174;48.190;11.462;2024-03-08T02:53:05;35.55;;;14.73;;
27792;SDS011;15174;48.190;11.462;2024-03-08T02:55:32;31.25;;;14.88;;
27792;SDS011;15174;48.190;11.462;2024-03-08T02:58:01;36.03;;;16.25;;
27792;SDS011;15174;48.190;11.462;2024-03-08T03:00:28;34.13;;;15.38;;
27792;SDS011;15174;48.190;11.462;2024-03-08T03:02:58;33.75;;;15.82;;
27792;SDS011;15174;48.190;11.462;2024-03-08T03:05:25;38.33;;;16.05;;
27792;SDS011;15174;48.190;11.462;2024-03-08T03:07:51;37.47;;;16.05;;
27792;SDS011;15174;48.190;11.462;2024-03-08T03:10:17;39.70;;;15.13;;
27792;SDS011;15174;48.190;11.462;2024-03-08T03:12:44;30.92;;;14.88;;
27792;SDS011;15174;48.190;11.462;2024-03-08T03:15:16;35.47;;;16.75;;
27792;SDS011;15174;48.190;11.462;2024-03-08T03:17:49;37.17;;;15.27;;
27792;SDS011;15174;48.190;11.462;2024-03-08T03:20:18;35.50;;;15.85;;
27792;SDS011;15174;48.190;11.462;2024-03-08T03:22:52;34.90;;;15.60;;
27792;SDS011;15174;48.190;11.462;2024-03-08T03:25:19;38.70;;;16.45;;
27792;SDS011;15174;48.190;11.462;2024-03-08T03:27:54;35.65;;;17.10;;
27792;SDS011;15174;48.190;11.462;2024-03-08T03:30:23;42.55;;;14.65;;
27792;SDS011;15174;48.190;11.462;2024-03-08T03:32:51;38.53;;;17.67;;
27792;SDS011;15174;48.190;11.462;2024-03-08T03:37:45;30.98;;;14.00;;
27792;SDS011;15174;48.190;11.462;2024-03-08T03:40:29;43.42;;;17.55;;
27792;SDS011;15174;48.190;11.462;2024-03-08T03:42:56;37.22;;;16.35;;
27792;SDS011;15174;48.190;11.462;2024-03-08T03:45:22;35.40;;;15.48;;
27792;SDS011;15174;48.190;11.462;2024-03-08T03:47:48;34.10;;;16.38;;
27792;SDS011;15174;48.190;11.462;2024-03-08T03:50:15;40.15;;;16.90;;
27792;SDS011;15174;48.190;11.462;2024-03-08T03:52:41;41.85;;;17.30;;
27792;SDS011;15174;48.190;11.462;2024-03-08T03:55:07;38.17;;;16.70;;
27792;SDS011;15174;48.190;11.462;2024-03-08T03:57:33;35.75;;;15.32;;
27792;SDS011;15174;48.190;11.462;2024-03-08T03:59:59;40.55;;;17.52;;
27792;SDS011;15174;48.190;11.462;2024-03-08T04:02:38;40.88;;;17.08;;
27792;SDS011;15174;48.190;11.462;2024-03-08T04:05:05;44.35;;;17.35;;
27792;SDS011;15174;48.190;11.462;2024-03-08T04:07:31;35.25;;;16.85;;
27792;SDS011;15174;48.190;11.462;2024-03-08T04:09:57;37.53;;;17.45;;
27792;SDS011;15174;48.190;11.462;2024-03-08T04:12:23;46.78;;;17.52;;
27792;SDS011;15174;48.190;11.462;2024-03-08T04:14:49;37.65;;;16.65;;
27792;SDS011;15174;48.190;11.462;2024-03-08T04:17:15;38.15;;;17.73;;
27792;SDS011;15174;48.190;11.462;2024-03-08T04:22:09;44.10;;;18.33;;
27792;SDS011;15174;48.190;11.462;2024-03-08T04:24:35;44.83;;;17.70;;
27792;SDS011;15174;48.190;11.462;2024-03-08T04:27:01;39.00;;;18.40;;
27792;SDS011;15174;48.190;11.462;2024-03-08T04:29:27;43.72;;;18.40;;
27792;SDS011;15174;48.190;11.462;2024-03-08T04:31:53;42.10;;;18.10;;
27792;SDS011;15174;48.190;11.462;2024-03-08T04:34:22;46.17;;;17.77;;
27792;SDS011;15174;48.190;11.462;2024-03-08T04:36:49;43.90;;;19.17;;
27792;SDS011;15174;48.190;11.462;2024-03-08T04:39:15;42.97;;;19.42;;
27792;SDS011;15174;48.190;11.462;2024-03-08T04:41:41;40.30;;;18.42;;
27792;SDS011;15174;48.190;11.462;2024-03-08T04:44:08;43.40;;;19.13;;
27792;SDS011;15174;48.190;11.462;2024-03-08T04:46:35;44.72;;;19.98;;
27792;SDS011;15174;48.190;11.462;2024-03-08T04:49:01;41.40;;;17.95;;
27792;SDS011;15174;48.190;11.462;2024-03-08T04:51:27;47.40;;;18.75;;
27792;SDS011;15174;48.190;11.462;2024-03-08T04:53:53;48.50;;;19.65;;
27792;SDS011;15174;48.190;11.462;2024-03-08T04:56:19;47.00;;;20.45;;
27792;SDS011;15174;48.190;11.462;2024-03-08T04:58:46;51.50;;;20.83;;
27792;SDS011;15174;48.190;11.462;2024-03-08T05:01:12;53.95;;;19.33;;
27792;SDS011;15174;48.190;11.462;2024-03-08T05:03:38;49.15;;;20.70;;
27792;SDS011;15174;48.190;11.462;2024-03-08T05:06:04;52.95;;;22.55;;
27792;SDS011;15174;48.190;11.462;2024-03-08T05:08:31;48.83;;;20.48;;
27792;SDS011;15174;48.190;11.462;2024-03-08T05:10:58;50.17;;;21.23;;
27792;SDS011;15174;48.190;11.462;2024-03-08T05:15:52;47.88;;;20.80;;
27792;SDS011;15174;48.190;11.462;2024-03-08T05:18:18;48.83;;;20.55;;
27792;SDS011;15174;48.190;11.462;2024-03-08T05:20:44;54.78;;;22.10;;
27792;SDS011;15174;48.190;11.462;2024-03-08T05:23:11;47.40;;;21.83;;
27792;SDS011;15174;48.190;11.462;2024-03-08T05:25:37;59.15;;;25.65;;
27792;SDS011;15174;48.190;11.462;2024-03-08T05:28:03;51.97;;;20.27;;
27792;SDS011;15174;48.190;11.462;2024-03-08T05:30:29;45.58;;;20.50;;
27792;SDS011;15174;48.190;11.462;2024-03-08T05:32:57;42.83;;;21.00;;
27792;SDS011;15174;48.190;11.462;2024-03-08T05:35:23;49.38;;;20.95;;
27792;SDS011;15174;48.190;11.462;2024-03-08T05:37:49;60.40;;;21.42;;
27792;SDS011;15174;48.190;11.462;2024-03-08T05:40:15;49.75;;;22.38;;
27792;SDS011;15174;48.190;11.462;2024-03-08T05:42:41;56.75;;;21.38;;
27792;SDS011;15174;48.190;11.462;2024-03-08T05:45:07;51.97;;;21.38;;
27792;SDS011;15174;48.190;11.462;2024-03-08T05:47:36;44.97;;;19.85;;
27792;SDS011;15174;48.190;11.462;2024-03-08T05:50:02;48.88;;;21.40;;
27792;SDS011;15174;48.190;11.462;2024-03-08T05:52:29;44.20;;;21.45;;
27792;SDS011;15174;48.190;11.462;2024-03-08T05:54:55;42.47;;;19.20;;
27792;SDS011;15174;48.190;11.462;2024-03-08T05:57:21;42.85;;;20.35;;
27792;SDS011;15174;48.190;11.462;2024-03-08T05:59:48;48.60;;;20.70;;
27792;SDS011;15174;48.190;11.462;2024-03-08T06:02:14;49.80;;;22.23;;
27792;SDS011;15174;48.190;11.462;2024-03-08T06:04:44;48.13;;;20.40;;
27792;SDS011;15174;48.190;11.462;2024-03-08T06:07:11;46.83;;;19.52;;
27792;SDS011;15174;48.190;11.462;2024-03-08T06:09:38;55.55;;;23.10;;
27792;SDS011;15174;48.190;11.462;2024-03-08T06:12:04;56.20;;;21.10;;
27792;SDS011;15174;48.190;11.462;2024-03-08T06:14:31;43.65;;;20.48;;
27792;SDS011;15174;48.190;11.462;2024-03-08T06:16:57;48.42;;;19.58;;
27792;SDS011;15174;48.190;11.462;2024-03-08T06:19:23;47.92;;;19.63;;
27792;SDS011;15174;48.190;11.462;2024-03-08T06:21:50;47.92;;;19.50;;
27792;SDS011;15174;48.190;11.462;2024-03-08T06:24:16;43.55;;;19.35;;
27792;SDS011;15174;48.190;11.462;2024-03-08T06:26:42;44.10;;;20.95;;
27792;SDS011;15174;48.190;11.462;2024-03-08T06:29:08;46.20;;;20.95;;
27792;SDS011;15174;48.190;11.462;2024-03-08T06:31:35;44.63;;;20.88;;
27792;SDS011;15174;48.190;11.462;2024-03-08T06:34:04;48.45;;;18.65;;
27792;SDS011;15174;48.190;11.462;2024-03-08T06:36:33;40.97;;;19.17;;
27792;SDS011;15174;48.190;11.462;2024-03-08T06:38:59;44.90;;;19.33;;
27792;SDS011;15174;48.190;11.462;2024-03-08T06:41:25;43.38;;;19.42;;
27792;SDS011;15174;48.190;11.462;2024-03-08T06:43:52;46.85;;;17.88;;
27792;SDS011;15174;48.190;11.462;2024-03-08T06:46:22;48.15;;;18.80;;
27792;SDS011;15174;48.190;11.462;2024-03-08T06:48:48;44.20;;;17.63;;
27792;SDS011;15174;48.190;11.462;2024-03-08T06:51:14;41.63;;;19.13;;
27792;SDS011;15174;48.190;11.462;2024-03-08T06:53:40;38.88;;;17.92;;
27792;SDS011;15174;48.190;11.462;2024-03-08T06:56:06;40.33;;;17.45;;
27792;SDS011;15174;48.190;11.462;2024-03-08T06:58:33;50.28;;;18.25;;
27792;SDS011;15174;48.190;11.462;2024-03-08T07:00:59;42.53;;;18.23;;
27792;SDS011;15174;48.190;11.462;2024-03-08T07:03:29;36.13;;;17.25;;
27792;SDS011;15174;48.190;11.462;2024-03-08T07:05:58;45.10;;;19.67;;
27792;SDS011;15174;48.190;11.462;2024-03-08T07:08:24;44.55;;;18.67;;
27792;SDS011;15174;48.190;11.462;2024-03-08T07:10:52;33.40;;;15.63;;
27792;SDS011;15174;48.190;11.462;2024-03-08T07:13:18;36.53;;;16.40;;
27792;SDS011;15174;48.190;11.462;2024-03-08T07:15:44;38.85;;;16.40;;
27792;SDS011;15174;48.190;11.462;2024-03-08T07:18:10;41.05;;;16.90;;
27792;SDS011;15174;48.190;11.462;2024-03-08T07:20:40;36.08;;;16.75;;
27792;SDS011;15174;48.190;11.462;2024-03-08T07:23:06;35.08;;;15.15;;
27792;SDS011;15174;48.190;11.462;2024-03-08T07:25:33;36.67;;;14.68;;
27792;SDS011;15174;48.190;11.462;2024-03-08T07:28:00;38.50;;;15.93;;
27792;SDS011;15174;48.190;11.462;2024-03-08T07:30:26;39.35;;;17.15;;
27792;SDS011;15174;48.190;11.462;2024-03-08T07:33:25;40.40;;;15.90;;
27792;SDS011;15174;48.190;11.462;2024-03-08T07:35:52;37.80;;;17.95;;
27792;SDS011;15174;48.190;11.462;2024-03-08T07:38:18;31.98;;;14.73;;
27792;SDS011;15174;48.190;11.462;2024-03-08T07:40:46;33.70;;;15.15;;
27792;SDS011;15174;48.190;11.462;2024-03-08T07:43:13;41.92;;;16.92;;
27792;SDS011;15174;48.190;11.462;2024-03-08T07:45:39;39.25;;;16.15;;
27792;SDS011;15174;48.190;11.462;2024-03-08T07:48:06;32.85;;;15.02;;
27792;SDS011;15174;48.190;11.462;2024-03-08T07:50:41;34.50;;;13.48;;
27792;SDS011;15174;48.190;11.462;2024-03-08T07:53:07;37.03;;;15.85;;
27792;SDS011;15174;48.190;11.462;2024-03-08T07:55:33;37.30;;;14.82;;
27792;SDS011;15174;48.190;11.462;2024-03-08T07:58:00;35.67;;;15.48;;
27792;SDS011;15174;48.190;11.462;2024-03-08T08:00:26;41.10;;;15.95;;
27792;SDS011;15174;48.190;11.462;2024-03-08T08:02:55;35.75;;;15.50;;
27792;SDS011;15174;48.190;11.462;2024-03-08T08:05:21;32.40;;;14.90;;
27792;SDS011;15174;48.190;11.462;2024-03-08T08:07:48;33.85;;;15.50;;
27792;SDS011;15174;48.190;11.462;2024-03-08T08:10:15;33.35;;;15.32;;
27792;SDS011;15174;48.190;11.462;2024-03-08T08:12:49;30.50;;;13.95;;
27792;SDS011;15174;48.190;11.462;2024-03-08T08:15:16;31.67;;;15.20;;
27792;SDS011;15174;48.190;11.462;2024-03-08T08:17:45;36.50;;;15.60;;
27792;SDS011;15174;48.190;11.462;2024-03-08T08:20:12;33.47;;;14.48;;
27792;SDS011;15174;48.190;11.462;2024-03-08T08:22:39;35.72;;;14.00;;
27792;SDS011;15174;48.190;11.462;2024-03-08T08:25:06;33.20;;;14.20;;
27792;SDS011;15174;48.190;11.462;2024-03-08T08:27:32;37.65;;;16.48;;
27792;SDS011;15174;48.190;11.462;2024-03-08T08:29:58;35.83;;;15.43;;
27792;SDS011;15174;48.190;11.462;2024-03-08T08:32:26;35.95;;;15.57;;
27792;SDS011;15174;48.190;11.462;2024-03-08T08:34:52;28.13;;;14.32;;
27792;SDS011;15174;48.190;11.462;2024-03-08T08:37:18;30.50;;;14.88;;
27792;SDS011;15174;48.190;11.462;2024-03-08T08:39:44;32.28;;;15.13;;
27792;SDS011;15174;48.190;11.462;2024-03-08T08:42:10;34.35;;;14.57;;
27792;SDS011;15174;48.190;11.462;2024-03-08T08:44:36;32.97;;;14.45;;
27792;SDS011;15174;48.190;11.462;2024-03-08T08:47:02;26.75;;;13.93;;
27792;SDS011;15174;48.190;11.462;2024-03-08T08:49:29;34.40;;;13.93;;
27792;SDS011;15174;48.190;11.462;2024-03-08T08:51:55;33.28;;;14.20;;
27792;SDS011;15174;48.190;11.462;2024-03-08T08:54:29;30.95;;;13.80;;
27792;SDS011;15174;48.190;11.462;2024-03-08T08:56:56;32.13;;;13.65;;
27792;SDS011;15174;48.190;11.462;2024-03-08T08:59:23;31.97;;;15.07;;
27792;SDS011;15174;48.190;11.462;2024-03-08T09:01:50;29.13;;;14.65;;
27792;SDS011;15174;48.190;11.462;2024-03-08T09:04:18;25.80;;;12.43;;
27792;SDS011;15174;48.190;11.462;2024-03-08T09:09:12;29.35;;;13.80;;
27792;SDS011;15174;48.190;11.462;2024-03-08T09:11:38;34.25;;;12.73;;
27792;SDS011;15174;48.190;11.462;2024-03-08T09:14:08;26.60;;;12.98;;
27792;SDS011;15174;48.190;11.462;2024-03-08T09:16:34;29.40;;;13.50;;
27792;SDS011;15174;48.190;11.462;2024-03-08T09:19:00;29.30;;;11.95;;
27792;SDS011;15174;48.190;11.462;2024-03-08T09:21:26;30.17;;;12.88;;
27792;SDS011;15174;48.190;11.462;2024-03-08T09:23:52;33.63;;;13.23;;
27792;SDS011;15174;48.190;11.462;2024-03-08T09:26:19;28.75;;;12.20;;
27792;SDS011;15174;48.190;11.462;2024-03-08T09:28:45;25.15;;;12.00;;
27792;SDS011;15174;48.190;11.462;2024-03-08T09:31:11;29.83;;;13.50;;
27792;SDS011;15174;48.190;11.462;2024-03-08T09:33:37;28.63;;;14.40;;
27792;SDS011;15174;48.190;11.462;2024-03-08T09:36:05;32.53;;;15.45;;
27792;SDS011;15174;48.190;11.462;2024-03-08T09:38:33;29.98;;;14.02;;
27792;SDS011;15174;48.190;11.462;2024-03-08T09:41:00;32.92;;;15.00;;
27792;SDS011;15174;48.190;11.462;2024-03-08T09:43:29;32.13;;;15.55;;
27792;SDS011;15174;48.190;11.462;2024-03-08T09:45:55;32.83;;;15.35;;
27792;SDS011;15174;48.190;11.462;2024-03-08T09:48:22;34.38;;;15.20;;
27792;SDS011;15174;48.190;11.462;2024-03-08T09:50:49;31.42;;;14.82;;
27792;SDS011;15174;48.190;11.462;2024-03-08T09:53:15;30.63;;;14.25;;
27792;SDS011;15174;48.190;11.462;2024-03-08T09:55:41;31.90;;;14.60;;
27792;SDS011;15174;48.190;11.462;2024-03-08T09:58:10;29.17;;;14.50;;
27792;SDS011;15174;48.190;11.462;2024-03-08T10:00:55;30.05;;;14.63;;
27792;SDS011;15174;48.190;11.462;2024-03-08T10:03:27;28.63;;;14.65;;
27792;SDS011;15174;48.190;11.462;2024-03-08T10:05:53;27.17;;;14.43;;
27792;SDS011;15174;48.190;11.462;2024-03-08T10:08:26;29.70;;;14.63;;
27792;SDS011;15174;48.190;11.462;2024-03-08T10:10:54;29.98;;;14.70;;
27792;SDS011;15174;48.190;11.462;2024-03-08T10:13:20;27.98;;;14.32;;
27792;SDS011;15174;48.190;11.462;2024-03-08T10:15:46;28.67;;;14.48;;
27792;SDS011;15174;48.190;11.462;2024-03-08T10:18:12;27.67;;;14.32;;
27792;SDS011;15174;48.190;11.462;2024-03-08T10:20:38;26.35;;;12.80;;
27792;SDS011;15174;48.190;11.462;2024-03-08T10:23:04;25.67;;;13.40;;
27792;SDS011;15174;48.190;11.462;2024-03-08T10:25:31;28.70;;;12.85;;
27792;SDS011;15174;48.190;11.462;2024-03-08T10:27:57;27.83;;;13.50;;
27792;SDS011;15174;48.190;11.462;2024-03-08T10:30:23;31.38;;;13.63;;
27792;SDS011;15174;48.190;11.462;2024-03-08T10:32:49;30.60;;;14.07;;
27792;SDS011;15174;48.190;11.462;2024-03-08T10:35:16;33.03;;;15.30;;
27792;SDS011;15174;48.190;11.462;2024-03-08T10:40:09;27.40;;;13.73;;
27792;SDS011;15174;48.190;11.462;2024-03-08T10:42:38;30.60;;;14.02;;
27792;SDS011;15174;48.190;11.462;2024-03-08T10:45:19;28.52;;;13.25;;
27792;SDS011;15174;48.190;11.462;2024-03-08T10:47:50;36.20;;;14.38;;
27792;SDS011;15174;48.190;11.462;2024-03-08T10:50:20;28.90;;;13.23;;
27792;SDS011;15174;48.190;11.462;2024-03-08T10:52:50;27.90;;;13.00;;
27792;SDS011;15174;48.190;11.462;2024-03-08T10:55:20;35.30;;;14.93;;
27792;SDS011;15174;48.190;11.462;2024-03-08T10:57:46;33.72;;;15.00;;
27792;SDS011;15174;48.190;11.462;2024-03-08T11:00:13;38.88;;;14.18;;
27792;SDS011;15174;48.190;11.462;2024-03-08T11:02:48;34.58;;;15.15;;
27792;SDS011;15174;48.190;11.462;2024-03-08T11:08:01;33.80;;;14.07;;
27792;SDS011;15174;48.190;11.462;2024-03-08T11:10:27;36.67;;;13.48;;
27792;SDS011;15174;48.190;11.462;2024-03-08T11:12:53;27.70;;;13.95;;
27792;SDS011;15174;48.190;11.462;2024-03-08T11:15:19;32.08;;;15.10;;
27792;SDS011;15174;48.190;11.462;2024-03-08T11:17:48;36.47;;;14.50;;
27792;SDS011;15174;48.190;11.462;2024-03-08T11:20:18;31.00;;;13.32;;
27792;SDS011;15174;48.190;11.462;2024-03-08T11:22:48;33.20;;;14.25;;
27792;SDS011;15174;48.190;11.462;2024-03-08T11:33:13;33.75;;;14.70;;
27792;SDS011;15174;48.190;11.462;2024-03-08T11:35:41;26.50;;;12.60;;
27792;SDS011;15174;48.190;11.462;2024-03-08T11:38:11;26.60;;;12.68;;
27792;SDS011;15174;48.190;11.462;2024-03-08T11:40:38;28.13;;;12.75;;
27792;SDS011;15174;48.190;11.462;2024-03-08T11:43:05;28.35;;;12.52;;
27792;SDS011;15174;48.190;11.462;2024-03-08T11:45:33;31.10;;;13.73;;
27792;SDS011;15174;48.190;11.462;2024-03-08T11:48:01;28.35;;;13.38;;
27792;SDS011;15174;48.190;11.462;2024-03-08T11:50:30;30.10;;;13.27;;
27792;SDS011;15174;48.190;11.462;2024-03-08T11:53:01;29.02;;;13.40;;
27792;SDS011;15174;48.190;11.462;2024-03-08T11:55:28;25.25;;;12.00;;
27792;SDS011;15174;48.190;11.462;2024-03-08T11:58:03;28.27;;;12.93;;
27792;SDS011;15174;48.190;11.462;2024-03-08T12:00:30;28.77;;;12.77;;
27792;SDS011;15174;48.190;11.462;2024-03-08T12:03:07;22.67;;;10.65;;
27792;SDS011;15174;48.190;11.462;2024-03-08T12:05:34;26.58;;;12.52;;
27792;SDS011;15174;48.190;11.462;2024-03-08T12:08:04;27.23;;;11.63;;
27792;SDS011;15174;48.190;11.462;2024-03-08T12:10:32;28.08;;;12.15;;
27792;SDS011;15174;48.190;11.462;2024-03-08T12:15:26;25.13;;;11.77;;
27792;SDS011;15174;48.190;11.462;2024-03-08T12:17:54;24.33;;;11.43;;
27792;SDS011;15174;48.190;11.462;2024-03-08T12:20:24;29.50;;;12.10;;
27792;SDS011;15174;48.190;11.462;2024-03-08T12:22:51;23.87;;;12.13;;
27792;SDS011;15174;48.190;11.462;2024-03-08T12:25:21;26.27;;;11.18;;
27792;SDS011;15174;48.190;11.462;2024-03-08T12:27:47;26.33;;;12.85;;
27792;SDS011;15174;48.190;11.462;2024-03-08T12:30:26;28.85;;;11.93;;
27792;SDS011;15174;48.190;11.462;2024-03-08T12:32:58;24.55;;;11.52;;
27792;SDS011;15174;48.190;11.462;2024-03-08T12:35:29;26.30;;;13.15;;
27792;SDS011;15174;48.190;11.462;2024-03-08T12:37:57;26.25;;;11.40;;
27792;SDS011;15174;48.190;11.462;2024-03-08T12:40:27;32.25;;;12.23;;
27792;SDS011;15174;48.190;11.462;2024-03-08T12:42:55;24.85;;;11.63;;
27792;SDS011;15174;48.190;11.462;2024-03-08T12:45:23;24.95;;;12.55;;
27792;SDS011;15174;48.190;11.462;2024-03-08T12:47:50;27.75;;;12.25;;
27792;SDS011;15174;48.190;11.462;2024-03-08T12:50:17;28.27;;;12.68;;
27792;SDS011;15174;48.190;11.462;2024-03-08T12:52:43;25.00;;;12.63;;
27792;SDS011;15174;48.190;11.462;2024-03-08T12:55:09;30.75;;;13.65;;
27792;SDS011;15174;48.190;11.462;2024-03-08T12:57:37;29.03;;;11.77;;
27792;SDS011;15174;48.190;11.462;2024-03-08T13:00:03;30.92;;;12.95;;
27792;SDS011;15174;48.190;11.462;2024-03-08T13:02:30;24.40;;;11.15;;
27792;SDS011;15174;48.190;11.462;2024-03-08T13:04:57;24.87;;;11.80;;
27792;SDS011;15174;48.190;11.462;2024-03-08T13:07:24;23.65;;;12.18;;
27792;SDS011;15174;48.190;11.462;2024-03-08T13:09:53;34.85;;;12.73;;
27792;SDS011;15174;48.190;11.462;2024-03-08T13:12:20;25.17;;;12.82;;
27792;SDS011;15174;48.190;11.462;2024-03-08T13:14:46;27.92;;;10.90;;
27792;SDS011;15174;48.190;11.462;2024-03-08T13:17:12;24.05;;;11.02;;
27792;SDS011;15174;48.190;11.462;2024-03-08T13:19:38;22.25;;;11.45;;
27792;SDS011;15174;48.190;11.462;2024-03-08T13:22:05;24.08;;;10.23;;
27792;SDS011;15174;48.190;11.462;2024-03-08T13:24:31;21.77;;;9.98;;
27792;SDS011;15174;48.190;11.462;2024-03-08T13:26:57;25.77;;;12.07;;
27792;SDS011;15174;48.190;11.462;2024-03-08T13:29:25;28.45;;;11.52;;
27792;SDS011;15174;48.190;11.462;2024-03-08T13:31:51;24.80;;;11.05;;
27792;SDS011;15174;48.190;11.462;2024-03-08T13:34:19;27.40;;;11.38;;
27792;SDS011;15174;48.190;11.462;2024-03-08T13:36:54;19.45;;;10.18;;
27792;SDS011;15174;48.190;11.462;2024-03-08T13:39:28;25.38;;;11.02;;
27792;SDS011;15174;48.190;11.462;2024-03-08T13:44:22;22.63;;;10.45;;
27792;SDS011;15174;48.190;11.462;2024-03-08T13:46:48;24.33;;;10.50;;
27792;SDS011;15174;48.190;11.462;2024-03-08T13:49:16;25.38;;;11.90;;
27792;SDS011;15174;48.190;11.462;2024-03-08T13:51:42;28.42;;;10.63;;
27792;SDS011;15174;48.190;11.462;2024-03-08T13:54:08;26.25;;;11.57;;
27792;SDS011;15174;48.190;11.462;2024-03-08T13:56:35;24.30;;;11.02;;
27792;SDS011;15174;48.190;11.462;2024-03-08T13:59:02;20.75;;;10.30;;
27792;SDS011;15174;48.190;11.462;2024-03-08T14:01:28;26.20;;;11.48;;
27792;SDS011;15174;48.190;11.462;2024-03-08T14:03:55;22.45;;;11.05;;
27792;SDS011;15174;48.190;11.462;2024-03-08T14:06:22;22.55;;;11.13;;
27792;SDS011;15174;48.190;11.462;2024-03-08T14:11:16;23.33;;;10.43;;
27792;SDS011;15174;48.190;11.462;2024-03-08T14:13:44;22.85;;;11.48;;
27792;SDS011;15174;48.190;11.462;2024-03-08T14:16:11;22.13;;;11.00;;
27792;SDS011;15174;48.190;11.462;2024-03-08T14:18:38;23.88;;;11.63;;
27792;SDS011;15174;48.190;11.462;2024-03-08T14:21:04;26.15;;;11.25;;
27792;SDS011;15174;48.190;11.462;2024-03-08T14:23:30;22.05;;;11.23;;
27792;SDS011;15174;48.190;11.462;2024-03-08T14:25:58;25.67;;;10.50;;
27792;SDS011;15174;48.190;11.462;2024-03-08T14:28:24;24.27;;;10.77;;
27792;SDS011;15174;48.190;11.462;2024-03-08T14:30:52;25.25;;;11.45;;
27792;SDS011;15174;48.190;11.462;2024-03-08T14:33:18;19.42;;;10.02;;
27792;SDS011;15174;48.190;11.462;2024-03-08T14:35:44;20.98;;;11.18;;
27792;SDS011;15174;48.190;11.462;2024-03-08T14:38:14;23.42;;;11.75;;
27792;SDS011;15174;48.190;11.462;2024-03-08T14:43:12;26.02;;;11.52;;
27792;SDS011;15174;48.190;11.462;2024-03-08T14:45:41;25.42;;;10.27;;